Time;durP1;ratioP1;P1;durP2;ratioP2;P2;SDS_P1;SDS_P2;PMS_P1;PMS_P2;Temp;Humidity;BMP_temperature;BMP_pressure;BME280_temperature;BME280_humidity;BME280_pressure;Samples;Min_cycle;Max_cycle;Signal;HPM_P1;HPM_P2
2022/03/26 00:01:08;;;;;;;34.10;13.88;;;;;;;;;;5084643;28;20052;-68
2022/03/26 00:03:37;;;;;;;39.55;14.13;;;;;;;;;;5074917;28;20082;-69
2022/03/26 00:06:08;;;;;;;33.88;13.82;;;;;;;;;;5078062;28;20084;-68
2022/03/26 00:08:36;;;;;;;33.17;13.82;;;;;;;;;;5086041;28;20127;-68
2022/03/26 00:11:09;;;;;;;36.15;13.73;;;;;;;;;;5084958;28;20044;-68
2022/03/26 00:13:38;;;;;;;39.15;13.90;;;;;;;;;;5084818;28;20063;-68
2022/03/26 00:16:07;;;;;;;31.08;13.75;;;;;;;;;;5081705;28;20091;-68
2022/03/26 00:18:35;;;;;;;36.88;13.38;;;;;;;;;;5092943;28;20499;-69
2022/03/26 00:21:06;;;;;;;38.65;13.15;;;;;;;;;;5087954;28;20044;-68
2022/03/26 00:23:35;;;;;;;37.50;13.43;;;;;;;;;;5082429;28;20130;-68
2022/03/26 00:26:07;;;;;;;30.20;13.30;;;;;;;;;;5082477;28;20542;-68
2022/03/26 00:28:37;;;;;;;35.17;13.77;;;;;;;;;;5085853;28;20045;-69
2022/03/26 00:31:06;;;;;;;35.25;13.55;;;;;;;;;;5068461;28;20091;-67
2022/03/26 00:33:34;;;;;;;30.45;12.30;;;;;;;;;;5083274;28;20094;-68
2022/03/26 00:36:05;;;;;;;33.47;13.05;;;;;;;;;;5073048;28;20127;-67
2022/03/26 00:38:34;;;;;;;31.83;11.02;;;;;;;;;;5088554;28;20101;-68
2022/03/26 00:41:04;;;;;;;30.88;13.10;;;;;;;;;;5095487;28;20327;-67
2022/03/26 00:43:33;;;;;;;34.03;13.52;;;;;;;;;;5092283;28;20079;-70
2022/03/26 00:46:05;;;;;;;33.00;13.85;;;;;;;;;;5095224;28;20123;-67
2022/03/26 00:48:33;;;;;;;40.05;13.82;;;;;;;;;;5098165;28;20547;-67
2022/03/26 00:51:01;;;;;;;34.67;13.07;;;;;;;;;;5096186;28;20080;-67
2022/03/26 00:53:32;;;;;;;34.10;13.63;;;;;;;;;;5110073;28;20043;-68
2022/03/26 00:56:00;;;;;;;35.33;13.30;;;;;;;;;;5093225;28;20151;-68
2022/03/26 00:58:28;;;;;;;32.28;12.98;;;;;;;;;;5090887;28;20111;-67
2022/03/26 01:00:57;;;;;;;34.13;12.57;;;;;;;;;;5088863;28;20052;-68
2022/03/26 01:03:27;;;;;;;34.08;14.20;;;;;;;;;;5090723;28;20102;-67
2022/03/26 01:05:55;;;;;;;35.13;13.70;;;;;;;;;;5090260;28;20080;-67
2022/03/26 01:08:24;;;;;;;32.78;13.23;;;;;;;;;;5091211;28;20083;-68
2022/03/26 01:10:52;;;;;;;36.95;13.00;;;;;;;;;;5104046;28;20577;-67
2022/03/26 01:13:25;;;;;;;31.75;12.80;;;;;;;;;;5099802;28;20040;-67
2022/03/26 01:15:53;;;;;;;29.65;11.75;;;;;;;;;;5103772;28;20079;-68
2022/03/26 01:18:22;;;;;;;34.67;14.00;;;;;;;;;;5090492;28;20048;-68
2022/03/26 01:20:52;;;;;;;35.90;14.20;;;;;;;;;;5089410;28;20487;-68
2022/03/26 01:23:20;;;;;;;33.22;13.20;;;;;;;;;;5089494;28;20125;-68
2022/03/26 01:25:49;;;;;;;32.88;13.48;;;;;;;;;;5093151;28;20135;-67
2022/03/26 01:28:17;;;;;;;37.65;13.93;;;;;;;;;;5089377;28;20075;-68
2022/03/26 01:30:46;;;;;;;36.22;13.90;;;;;;;;;;5090736;28;20075;-67
2022/03/26 01:33:14;;;;;;;32.47;13.43;;;;;;;;;;5088313;28;20490;-68
2022/03/26 01:35:43;;;;;;;41.70;14.85;;;;;;;;;;5081354;28;20136;-68
2022/03/26 01:38:12;;;;;;;36.92;14.82;;;;;;;;;;5088377;28;20439;-67
2022/03/26 01:40:41;;;;;;;38.53;12.98;;;;;;;;;;5099889;28;20075;-68
2022/03/26 01:43:09;;;;;;;37.33;14.93;;;;;;;;;;5090557;28;20079;-68
2022/03/26 01:45:37;;;;;;;38.47;14.90;;;;;;;;;;5089895;28;20130;-67
2022/03/26 01:48:06;;;;;;;36.00;14.32;;;;;;;;;;5086525;28;20476;-67
2022/03/26 01:50:34;;;;;;;37.60;14.10;;;;;;;;;;5101463;28;20079;-68
2022/03/26 01:53:03;;;;;;;39.55;14.02;;;;;;;;;;5090336;28;20134;-67
2022/03/26 01:55:33;;;;;;;40.38;14.48;;;;;;;;;;5088045;28;20130;-68
2022/03/26 01:58:01;;;;;;;38.30;14.10;;;;;;;;;;5088128;28;20502;-71
2022/03/26 02:00:30;;;;;;;36.63;14.20;;;;;;;;;;5092123;28;20065;-69
2022/03/26 02:02:59;;;;;;;38.90;14.45;;;;;;;;;;5088883;28;20074;-67
2022/03/26 02:05:28;;;;;;;39.30;14.13;;;;;;;;;;5089048;28;20044;-69
2022/03/26 02:11:33;;;;;;;32.30;13.55;;;;;;;;;;5086508;28;20039;-68
2022/03/26 02:14:02;;;;;;;37.00;13.82;;;;;;;;;;5088908;28;20187;-67
2022/03/26 02:16:32;;;;;;;35.33;14.02;;;;;;;;;;5088715;28;20459;-68
2022/03/26 02:19:01;;;;;;;40.00;14.32;;;;;;;;;;5084881;28;20067;-68
2022/03/26 02:21:31;;;;;;;35.47;14.23;;;;;;;;;;5076453;28;20138;-68
2022/03/26 02:23:59;;;;;;;38.95;15.40;;;;;;;;;;5088673;28;20102;-68
2022/03/26 02:26:28;;;;;;;39.22;13.73;;;;;;;;;;5080068;28;20139;-71
2022/03/26 02:28:57;;;;;;;33.38;14.02;;;;;;;;;;5086000;28;20079;-68
2022/03/26 02:31:27;;;;;;;36.55;14.18;;;;;;;;;;5087090;28;20127;-68
2022/03/26 02:33:55;;;;;;;38.03;15.05;;;;;;;;;;5088790;28;20090;-68
2022/03/26 02:36:23;;;;;;;34.70;14.25;;;;;;;;;;5086478;28;20082;-68
2022/03/26 02:38:53;;;;;;;40.67;14.10;;;;;;;;;;5091643;28;20510;-68
2022/03/26 02:41:21;;;;;;;45.92;14.93;;;;;;;;;;5095444;28;20123;-68
2022/03/26 02:43:49;;;;;;;39.72;14.65;;;;;;;;;;5092170;28;20167;-69
2022/03/26 02:46:18;;;;;;;40.13;14.38;;;;;;;;;;5101323;28;20040;-68
2022/03/26 02:48:46;;;;;;;42.05;14.85;;;;;;;;;;5090826;28;20461;-67
2022/03/26 02:51:14;;;;;;;39.05;14.80;;;;;;;;;;5089378;28;20522;-68
2022/03/26 02:53:43;;;;;;;40.88;14.63;;;;;;;;;;5097035;28;20119;-69
2022/03/26 02:56:13;;;;;;;43.90;15.90;;;;;;;;;;5081791;28;20127;-68
2022/03/26 02:58:41;;;;;;;41.42;15.25;;;;;;;;;;5085472;28;20681;-67
2022/03/26 03:01:09;;;;;;;39.58;15.07;;;;;;;;;;5089829;28;20127;-67
2022/03/26 03:03:38;;;;;;;41.10;14.73;;;;;;;;;;5093094;28;20052;-68
2022/03/26 03:06:06;;;;;;;35.72;15.15;;;;;;;;;;5092840;28;20127;-68
2022/03/26 03:08:34;;;;;;;39.22;14.73;;;;;;;;;;5093053;28;20040;-68
2022/03/26 03:11:05;;;;;;;40.78;15.32;;;;;;;;;;5089306;28;20044;-68
2022/03/26 03:13:34;;;;;;;42.40;13.80;;;;;;;;;;5092687;28;20113;-67
2022/03/26 03:16:05;;;;;;;38.40;14.57;;;;;;;;;;5092092;28;20050;-68
2022/03/26 03:18:33;;;;;;;41.38;15.68;;;;;;;;;;5092739;28;20090;-67
2022/03/26 03:21:02;;;;;;;37.95;14.77;;;;;;;;;;5092030;28;20044;-68
2022/03/26 03:23:32;;;;;;;39.80;15.32;;;;;;;;;;5091617;28;20054;-68
2022/03/26 03:26:00;;;;;;;39.20;15.68;;;;;;;;;;5093201;28;20451;-68
2022/03/26 03:28:29;;;;;;;44.20;15.55;;;;;;;;;;5089484;28;20046;-68
2022/03/26 03:30:58;;;;;;;35.40;14.93;;;;;;;;;;5088711;28;20072;-68
2022/03/26 03:33:27;;;;;;;38.67;14.10;;;;;;;;;;5090051;28;20083;-68
2022/03/26 03:35:55;;;;;;;40.08;15.68;;;;;;;;;;5082617;28;20139;-68
2022/03/26 03:38:24;;;;;;;45.75;15.10;;;;;;;;;;5078994;28;20103;-68
2022/03/26 03:40:52;;;;;;;44.67;17.23;;;;;;;;;;5061328;28;20091;-68
2022/03/26 03:43:20;;;;;;;43.15;15.85;;;;;;;;;;5056867;28;20090;-68
2022/03/26 03:45:49;;;;;;;36.60;15.05;;;;;;;;;;5063249;28;20044;-68
2022/03/26 03:48:18;;;;;;;34.85;14.27;;;;;;;;;;5062924;28;20147;-68
2022/03/26 03:50:47;;;;;;;40.58;15.52;;;;;;;;;;5064009;28;20136;-68
2022/03/26 03:53:17;;;;;;;44.63;15.63;;;;;;;;;;5071879;28;20044;-69
2022/03/26 03:55:45;;;;;;;39.15;15.38;;;;;;;;;;5073182;28;20040;-68
2022/03/26 03:58:13;;;;;;;43.95;15.68;;;;;;;;;;5077393;28;20072;-69
2022/03/26 04:00:42;;;;;;;43.78;15.52;;;;;;;;;;5079026;28;20051;-69
2022/03/26 04:03:10;;;;;;;40.97;16.23;;;;;;;;;;5076365;28;20037;-68
2022/03/26 04:05:40;;;;;;;47.50;15.63;;;;;;;;;;5065914;28;20041;-68
2022/03/26 04:08:08;;;;;;;40.50;15.40;;;;;;;;;;5072694;28;20049;-68
2022/03/26 04:10:37;;;;;;;44.10;15.77;;;;;;;;;;5069469;28;20151;-68
2022/03/26 04:13:05;;;;;;;43.72;15.65;;;;;;;;;;5055549;28;20106;-69
2022/03/26 04:15:33;;;;;;;49.80;15.98;;;;;;;;;;5068805;28;20044;-68
2022/03/26 04:18:01;;;;;;;43.72;16.38;;;;;;;;;;5056478;28;20091;-69
2022/03/26 04:20:30;;;;;;;51.55;17.05;;;;;;;;;;5058036;28;20456;-68
2022/03/26 04:22:59;;;;;;;51.30;15.43;;;;;;;;;;5079140;28;20127;-68
2022/03/26 04:25:28;;;;;;;43.20;16.27;;;;;;;;;;5073895;28;20082;-68
2022/03/26 04:27:56;;;;;;;45.50;15.52;;;;;;;;;;5075576;28;20090;-68
2022/03/26 04:30:24;;;;;;;45.38;15.55;;;;;;;;;;5067720;28;20136;-69
2022/03/26 04:32:53;;;;;;;44.47;16.13;;;;;;;;;;5071966;28;20072;-68
2022/03/26 04:35:21;;;;;;;43.15;16.60;;;;;;;;;;5066320;28;20116;-68
2022/03/26 04:37:52;;;;;;;39.92;14.75;;;;;;;;;;5079278;28;20569;-68
2022/03/26 04:40:21;;;;;;;41.40;14.63;;;;;;;;;;5079649;28;20040;-68
2022/03/26 04:42:50;;;;;;;42.65;15.48;;;;;;;;;;5091362;28;20052;-68
2022/03/26 04:45:18;;;;;;;49.65;16.38;;;;;;;;;;5090934;28;20131;-68
2022/03/26 04:47:46;;;;;;;45.83;17.52;;;;;;;;;;5090453;28;20076;-68
2022/03/26 04:50:15;;;;;;;42.88;15.82;;;;;;;;;;5090149;28;20055;-68
2022/03/26 04:52:43;;;;;;;40.22;15.13;;;;;;;;;;5090696;28;20044;-69
2022/03/26 04:55:12;;;;;;;45.17;16.55;;;;;;;;;;5085874;28;20079;-68
2022/03/26 04:57:42;;;;;;;44.92;15.68;;;;;;;;;;5086463;28;20078;-68
2022/03/26 05:00:12;;;;;;;45.65;15.82;;;;;;;;;;5090590;28;20050;-68
2022/03/26 05:02:40;;;;;;;37.60;14.88;;;;;;;;;;5090745;28;20128;-68
2022/03/26 05:05:09;;;;;;;39.28;15.68;;;;;;;;;;5092216;28;20119;-68
2022/03/26 05:07:48;;;;;;;36.95;14.00;;;;;;;;;;5090926;28;20076;-68
2022/03/26 05:10:17;;;;;;;38.42;15.27;;;;;;;;;;5087477;28;20055;-68
2022/03/26 05:12:47;;;;;;;44.55;15.18;;;;;;;;;;5086828;28;20123;-68
2022/03/26 05:15:16;;;;;;;42.80;16.20;;;;;;;;;;5090184;28;20143;-68
2022/03/26 05:17:45;;;;;;;43.20;15.13;;;;;;;;;;5088809;28;20054;-68
2022/03/26 05:20:14;;;;;;;45.33;15.98;;;;;;;;;;5088738;28;20043;-68
2022/03/26 05:22:42;;;;;;;43.97;15.50;;;;;;;;;;5090585;28;20090;-68
2022/03/26 05:25:11;;;;;;;41.03;15.32;;;;;;;;;;5090005;28;20558;-68
2022/03/26 05:27:39;;;;;;;46.63;14.77;;;;;;;;;;5086388;28;20075;-68
2022/03/26 05:30:10;;;;;;;44.38;15.65;;;;;;;;;;5085737;28;20134;-67
2022/03/26 05:32:38;;;;;;;43.03;16.58;;;;;;;;;;5088259;28;20103;-68
2022/03/26 05:35:11;;;;;;;43.95;16.40;;;;;;;;;;5089712;28;20126;-68
2022/03/26 05:37:39;;;;;;;41.75;15.82;;;;;;;;;;5078674;28;20060;-68
2022/03/26 05:40:08;;;;;;;37.38;14.30;;;;;;;;;;5069399;28;20072;-68
2022/03/26 05:42:38;;;;;;;40.78;15.55;;;;;;;;;;5069496;28;20068;-68
2022/03/26 05:45:07;;;;;;;45.40;16.27;;;;;;;;;;5069206;28;20084;-68
2022/03/26 05:47:37;;;;;;;37.90;14.35;;;;;;;;;;5069686;28;20093;-68
2022/03/26 05:50:06;;;;;;;37.92;14.70;;;;;;;;;;5067059;28;20079;-68
2022/03/26 05:52:34;;;;;;;45.40;15.30;;;;;;;;;;5075174;28;20115;-68
2022/03/26 05:55:03;;;;;;;49.08;17.45;;;;;;;;;;5075393;28;20084;-69
2022/03/26 05:57:31;;;;;;;45.55;16.17;;;;;;;;;;5063201;28;20045;-68
2022/03/26 06:00:00;;;;;;;41.22;15.18;;;;;;;;;;5060552;28;20143;-68
2022/03/26 06:02:28;;;;;;;43.70;16.10;;;;;;;;;;5062493;28;20055;-68
2022/03/26 06:04:58;;;;;;;42.88;16.48;;;;;;;;;;5067551;28;20446;-70
2022/03/26 06:07:26;;;;;;;42.05;14.68;;;;;;;;;;5076813;28;20076;-68
2022/03/26 06:09:55;;;;;;;36.55;15.70;;;;;;;;;;5068161;28;20071;-68
2022/03/26 06:12:23;;;;;;;41.00;14.85;;;;;;;;;;5070565;28;20496;-68
2022/03/26 06:14:52;;;;;;;41.60;15.20;;;;;;;;;;5069306;28;20533;-69
2022/03/26 06:17:21;;;;;;;41.33;15.43;;;;;;;;;;5057724;28;20098;-68
2022/03/26 06:19:49;;;;;;;40.85;15.63;;;;;;;;;;5069604;28;20052;-68
2022/03/26 06:22:19;;;;;;;39.55;16.13;;;;;;;;;;5070388;28;20141;-67
2022/03/26 06:24:47;;;;;;;40.88;14.98;;;;;;;;;;5066429;28;20052;-68
2022/03/26 06:27:16;;;;;;;40.08;15.60;;;;;;;;;;5065206;28;20057;-68
2022/03/26 06:29:44;;;;;;;42.08;16.00;;;;;;;;;;5065990;28;20483;-68
2022/03/26 06:32:13;;;;;;;44.00;16.75;;;;;;;;;;5064885;28;20553;-68
2022/03/26 06:34:42;;;;;;;42.08;15.85;;;;;;;;;;5065811;28;20044;-68
2022/03/26 06:37:10;;;;;;;44.97;16.27;;;;;;;;;;5072382;28;20142;-68
2022/03/26 06:39:40;;;;;;;36.83;13.98;;;;;;;;;;5085284;28;20048;-69
2022/03/26 06:42:10;;;;;;;43.83;15.70;;;;;;;;;;5086501;28;20056;-68
2022/03/26 06:44:42;;;;;;;48.50;18.92;;;;;;;;;;5085771;28;20048;-68
2022/03/26 06:47:10;;;;;;;46.80;16.95;;;;;;;;;;5085983;28;20562;-68
2022/03/26 06:49:39;;;;;;;44.75;17.13;;;;;;;;;;5093344;28;20072;-69
2022/03/26 06:52:08;;;;;;;51.95;18.08;;;;;;;;;;5089009;28;20082;-68
2022/03/26 06:54:36;;;;;;;42.53;15.45;;;;;;;;;;5086176;28;20052;-69
2022/03/26 06:57:07;;;;;;;49.47;16.77;;;;;;;;;;5084462;28;20072;-66
2022/03/26 06:59:36;;;;;;;42.92;16.55;;;;;;;;;;5084331;28;20055;-67
2022/03/26 07:02:04;;;;;;;55.92;17.38;;;;;;;;;;5085537;28;20155;-67
2022/03/26 07:04:32;;;;;;;53.80;17.02;;;;;;;;;;5087506;28;20052;-67
2022/03/26 07:07:01;;;;;;;52.72;17.13;;;;;;;;;;5086008;28;20094;-67
2022/03/26 07:09:33;;;;;;;45.80;16.88;;;;;;;;;;5086333;28;20682;-68
2022/03/26 07:12:02;;;;;;;50.95;17.52;;;;;;;;;;5084414;28;20139;-67
2022/03/26 07:14:32;;;;;;;50.92;17.92;;;;;;;;;;5083706;28;20044;-68
2022/03/26 07:17:00;;;;;;;46.47;17.38;;;;;;;;;;5083823;28;20483;-67
2022/03/26 07:19:29;;;;;;;46.58;17.45;;;;;;;;;;5084198;28;20582;-67
2022/03/26 07:21:57;;;;;;;49.50;17.08;;;;;;;;;;5084670;28;20052;-68
2022/03/26 07:24:25;;;;;;;51.17;18.05;;;;;;;;;;5083828;28;20170;-67
2022/03/26 07:26:54;;;;;;;50.20;17.88;;;;;;;;;;5087318;28;20060;-67
2022/03/26 07:29:22;;;;;;;50.85;17.58;;;;;;;;;;5086780;28;20079;-69
2022/03/26 07:31:52;;;;;;;52.90;18.15;;;;;;;;;;5084153;28;20127;-68
2022/03/26 07:34:20;;;;;;;49.40;17.15;;;;;;;;;;5098505;28;20440;-69
2022/03/26 07:36:48;;;;;;;50.30;17.55;;;;;;;;;;5084788;28;20071;-69
2022/03/26 07:39:17;;;;;;;50.83;17.70;;;;;;;;;;5087440;28;20048;-68
2022/03/26 07:41:45;;;;;;;53.97;17.85;;;;;;;;;;5086585;28;20072;-69
2022/03/26 07:44:13;;;;;;;43.58;16.98;;;;;;;;;;5087583;28;20171;-69
2022/03/26 07:46:42;;;;;;;46.10;17.27;;;;;;;;;;5086603;28;20090;-69
2022/03/26 07:49:12;;;;;;;52.85;17.60;;;;;;;;;;5088039;28;20119;-69
2022/03/26 07:51:40;;;;;;;49.42;16.52;;;;;;;;;;5095885;28;20044;-68
2022/03/26 07:54:09;;;;;;;49.47;18.10;;;;;;;;;;5087903;28;20590;-68
2022/03/26 07:56:37;;;;;;;49.80;17.75;;;;;;;;;;5082760;28;20050;-69
2022/03/26 07:59:06;;;;;;;47.92;17.75;;;;;;;;;;5089970;28;20479;-68
2022/03/26 08:01:35;;;;;;;48.67;17.50;;;;;;;;;;5088144;28;20134;-68
2022/03/26 08:04:04;;;;;;;57.10;18.35;;;;;;;;;;5095553;28;20419;-68
2022/03/26 08:06:34;;;;;;;49.25;17.05;;;;;;;;;;5097313;28;20051;-68
2022/03/26 08:09:02;;;;;;;49.50;18.92;;;;;;;;;;5099247;28;20075;-68
2022/03/26 08:11:30;;;;;;;48.58;17.88;;;;;;;;;;5093256;28;20106;-68
2022/03/26 08:13:58;;;;;;;51.83;17.85;;;;;;;;;;5092097;28;20083;-67
2022/03/26 08:16:27;;;;;;;49.38;17.92;;;;;;;;;;5091296;28;20560;-67
2022/03/26 08:18:55;;;;;;;48.75;17.85;;;;;;;;;;5095368;28;20502;-68
2022/03/26 08:21:23;;;;;;;42.75;17.42;;;;;;;;;;5090670;28;20083;-67
2022/03/26 08:23:54;;;;;;;49.38;17.75;;;;;;;;;;5089970;28;20090;-69
2022/03/26 08:26:23;;;;;;;57.45;19.13;;;;;;;;;;5090202;28;20081;-68
2022/03/26 08:28:52;;;;;;;44.45;18.35;;;;;;;;;;5092179;28;20479;-68
2022/03/26 08:31:21;;;;;;;50.75;17.55;;;;;;;;;;5088420;28;20140;-68
2022/03/26 08:33:50;;;;;;;49.88;17.38;;;;;;;;;;5091699;28;20286;-68
2022/03/26 08:36:19;;;;;;;46.88;18.02;;;;;;;;;;5090703;28;20066;-68
2022/03/26 08:38:48;;;;;;;55.42;19.23;;;;;;;;;;5077998;28;20056;-68
2022/03/26 08:41:19;;;;;;;52.90;18.60;;;;;;;;;;5087769;28;20047;-69
2022/03/26 08:43:47;;;;;;;47.25;18.48;;;;;;;;;;5080615;28;20363;-68
2022/03/26 08:46:17;;;;;;;46.95;17.83;;;;;;;;;;5091214;28;20109;-70
2022/03/26 08:48:45;;;;;;;47.13;17.52;;;;;;;;;;5086049;28;20557;-68
2022/03/26 08:51:13;;;;;;;45.22;17.80;;;;;;;;;;5098470;28;20536;-68
2022/03/26 08:53:42;;;;;;;48.30;19.27;;;;;;;;;;5085871;28;20127;-68
2022/03/26 08:56:11;;;;;;;53.17;20.10;;;;;;;;;;5099600;28;20070;-68
2022/03/26 08:58:41;;;;;;;46.03;18.33;;;;;;;;;;5089274;28;20105;-69
2022/03/26 09:01:11;;;;;;;46.95;17.17;;;;;;;;;;5083461;28;20055;-69
2022/03/26 09:03:40;;;;;;;43.65;18.52;;;;;;;;;;5081976;28;20538;-69
2022/03/26 09:06:12;;;;;;;49.28;18.90;;;;;;;;;;5085331;28;20152;-69
2022/03/26 09:08:40;;;;;;;46.35;18.65;;;;;;;;;;5085704;28;20047;-69
2022/03/26 09:11:09;;;;;;;44.72;18.05;;;;;;;;;;5077702;28;20491;-69
2022/03/26 09:13:37;;;;;;;41.05;16.92;;;;;;;;;;5084713;28;20137;-69
2022/03/26 09:16:09;;;;;;;49.92;17.58;;;;;;;;;;5085212;28;20052;-69
2022/03/26 09:18:38;;;;;;;46.33;19.70;;;;;;;;;;5085649;28;20079;-69
2022/03/26 09:21:07;;;;;;;44.05;17.38;;;;;;;;;;5087325;28;20083;-69
2022/03/26 09:23:36;;;;;;;42.67;18.25;;;;;;;;;;5083790;28;20079;-69
2022/03/26 09:26:07;;;;;;;45.95;18.45;;;;;;;;;;5086022;28;20070;-70
2022/03/26 09:28:35;;;;;;;44.33;17.67;;;;;;;;;;5077568;28;20052;-69
2022/03/26 09:31:06;;;;;;;42.60;17.55;;;;;;;;;;5085408;28;20044;-68
2022/03/26 09:33:36;;;;;;;38.95;16.25;;;;;;;;;;5083232;28;20128;-69
2022/03/26 09:36:07;;;;;;;40.88;16.85;;;;;;;;;;5085325;28;20158;-69
2022/03/26 09:38:36;;;;;;;44.53;18.50;;;;;;;;;;5094797;28;20079;-71
2022/03/26 09:41:07;;;;;;;44.65;19.42;;;;;;;;;;5083505;28;20132;-69
2022/03/26 09:43:39;;;;;;;43.53;18.83;;;;;;;;;;5074392;28;20124;-69
2022/03/26 09:46:07;;;;;;;48.05;18.08;;;;;;;;;;5084032;28;20052;-71
2022/03/26 09:48:38;;;;;;;44.83;18.67;;;;;;;;;;5086688;28;20051;-69
2022/03/26 09:51:06;;;;;;;44.38;18.15;;;;;;;;;;5086369;28;20428;-68
2022/03/26 09:53:35;;;;;;;41.13;17.65;;;;;;;;;;5086862;28;20520;-69
2022/03/26 09:56:07;;;;;;;46.58;18.27;;;;;;;;;;5086468;28;20177;-68
2022/03/26 09:58:35;;;;;;;38.70;18.52;;;;;;;;;;5087240;28;20073;-69
2022/03/26 10:01:06;;;;;;;41.83;17.48;;;;;;;;;;5082295;28;20265;-68
2022/03/26 10:03:39;;;;;;;46.92;18.42;;;;;;;;;;5084294;28;20328;-69
2022/03/26 10:06:13;;;;;;;41.08;17.70;;;;;;;;;;5087043;28;20081;-69
2022/03/26 10:08:42;;;;;;;42.42;16.13;;;;;;;;;;5084532;28;20039;-72
2022/03/26 10:11:21;;;;;;;42.95;17.67;;;;;;;;;;5086160;28;20056;-70
2022/03/26 10:13:52;;;;;;;41.15;18.48;;;;;;;;;;5080167;28;20036;-71
2022/03/26 10:16:20;;;;;;;43.05;19.20;;;;;;;;;;5087029;28;20470;-71
2022/03/26 10:18:50;;;;;;;46.85;18.55;;;;;;;;;;5082087;28;20044;-72
2022/03/26 10:21:21;;;;;;;39.40;17.45;;;;;;;;;;5087013;28;20097;-72
2022/03/26 10:23:53;;;;;;;;;;;;;;;;;;5086528;28;20051;-72
2022/03/26 10:26:23;;;;;;;44.05;18.38;;;;;;;;;;5087437;28;20339;-72
2022/03/26 10:28:52;;;;;;;39.40;18.00;;;;;;;;;;5085814;28;20052;-72
2022/03/26 10:34:10;;;;;;;44.03;18.98;;;;;;;;;;5076925;28;20043;-70
2022/03/26 10:36:41;;;;;;;41.47;17.73;;;;;;;;;;5082306;28;20131;-72
2022/03/26 10:39:15;;;;;;;42.42;19.73;;;;;;;;;;5080819;28;20052;-70
2022/03/26 10:41:44;;;;;;;42.70;16.95;;;;;;;;;;5087327;28;20446;-73
2022/03/26 10:44:13;;;;;;;41.25;18.98;;;;;;;;;;5083920;28;20503;-71
2022/03/26 10:46:46;;;;;;;43.33;17.15;;;;;;;;;;5085201;28;20169;-71
2022/03/26 10:49:15;;;;;;;44.50;18.75;;;;;;;;;;5084278;28;20052;-74
2022/03/26 10:51:45;;;;;;;39.00;18.45;;;;;;;;;;5085165;28;20093;-70
2022/03/26 10:54:15;;;;;;;40.75;17.80;;;;;;;;;;5086220;28;20102;-70
2022/03/26 10:56:44;;;;;;;37.80;17.05;;;;;;;;;;5085944;28;20055;-70
2022/03/26 10:59:12;;;;;;;43.53;18.23;;;;;;;;;;5082573;28;20102;-69
2022/03/26 11:01:41;;;;;;;37.88;17.23;;;;;;;;;;5079011;28;20040;-69
2022/03/26 11:04:09;;;;;;;38.03;18.60;;;;;;;;;;5082689;28;20490;-69
2022/03/26 11:06:40;;;;;;;36.97;17.40;;;;;;;;;;5085163;28;20107;-70
2022/03/26 11:09:10;;;;;;;39.47;17.90;;;;;;;;;;5082992;28;20505;-70
2022/03/26 11:11:39;;;;;;;39.83;17.65;;;;;;;;;;5087657;28;20068;-69
2022/03/26 11:14:09;;;;;;;36.28;16.98;;;;;;;;;;5085269;28;20110;-70
2022/03/26 11:16:49;;;;;;;36.75;17.77;;;;;;;;;;5080960;28;20070;-70
2022/03/26 11:19:23;;;;;;;38.83;17.70;;;;;;;;;;5081844;28;20056;-70
2022/03/26 11:22:13;;;;;;;40.35;17.85;;;;;;;;;;5081178;28;20043;-71
2022/03/26 11:24:56;;;;;;;38.67;16.90;;;;;;;;;;5061860;28;20051;-69
2022/03/26 11:27:34;;;;;;;39.33;19.20;;;;;;;;;;5096463;28;20068;-69
2022/03/26 11:30:05;;;;;;;37.35;17.02;;;;;;;;;;5091153;28;20131;-69
2022/03/26 11:32:34;;;;;;;35.15;16.70;;;;;;;;;;5090457;28;20084;-69
2022/03/26 11:35:03;;;;;;;36.45;16.83;;;;;;;;;;5087410;28;20315;-69
2022/03/26 11:37:32;;;;;;;33.08;15.48;;;;;;;;;;5091427;28;20101;-69
2022/03/26 11:40:02;;;;;;;36.22;17.10;;;;;;;;;;5090829;28;20040;-69
2022/03/26 11:42:37;;;;;;;37.60;16.73;;;;;;;;;;5090603;28;20051;-69
2022/03/26 11:50:47;;;;;;;31.85;15.77;;;;;;;;;;5098774;27;20553;-66
2022/03/26 11:53:34;;;;;;;35.58;16.13;;;;;;;;;;5087205;28;20044;-67
2022/03/26 11:56:07;;;;;;;34.63;16.80;;;;;;;;;;5084364;28;20048;-66
2022/03/26 11:58:41;;;;;;;35.92;16.40;;;;;;;;;;5087458;28;20070;-67
2022/03/26 12:01:16;;;;;;;29.88;15.57;;;;;;;;;;5086298;28;20036;-66
2022/03/26 12:03:46;;;;;;;;;;;;;;;;;;5091375;28;20435;-67
2022/03/26 12:06:39;;;;;;;35.08;15.50;;;;;;;;;;5091311;28;20275;-66
2022/03/26 12:09:07;;;;;;;32.60;15.27;;;;;;;;;;5089748;28;20091;-67
2022/03/26 12:11:37;;;;;;;36.35;16.17;;;;;;;;;;5088790;28;20126;-67
2022/03/26 12:14:06;;;;;;;34.35;15.73;;;;;;;;;;5090873;28;20406;-66
2022/03/26 12:16:53;;;;;;;34.28;15.70;;;;;;;;;;5090795;28;20047;-66
2022/03/26 12:19:37;;;;;;;34.03;15.75;;;;;;;;;;5090613;28;20048;-65
2022/03/26 12:22:21;;;;;;;34.20;15.45;;;;;;;;;;5088259;28;20147;-67
2022/03/26 12:24:50;;;;;;;31.47;15.47;;;;;;;;;;5089460;28;20071;-66
2022/03/26 12:27:19;;;;;;;31.27;15.00;;;;;;;;;;5089079;28;20598;-65
2022/03/26 12:29:48;;;;;;;35.03;16.17;;;;;;;;;;5091119;28;20047;-66
2022/03/26 12:32:18;;;;;;;33.13;16.33;;;;;;;;;;5092075;28;20142;-66
2022/03/26 12:34:54;;;;;;;39.72;17.65;;;;;;;;;;5079636;28;20101;-66
2022/03/26 12:37:23;;;;;;;37.08;16.15;;;;;;;;;;5087597;28;20453;-66
2022/03/26 12:39:52;;;;;;;30.02;15.10;;;;;;;;;;5090447;28;20139;-68
2022/03/26 12:42:22;;;;;;;33.33;15.75;;;;;;;;;;5092383;28;20169;-68
2022/03/26 12:44:51;;;;;;;35.80;17.30;;;;;;;;;;5088851;28;20067;-68
2022/03/26 12:47:19;;;;;;;36.00;17.23;;;;;;;;;;5086163;28;20439;-68
2022/03/26 12:49:48;;;;;;;30.60;15.57;;;;;;;;;;5090189;28;20151;-68
2022/03/26 12:52:20;;;;;;;30.65;14.98;;;;;;;;;;5084171;28;20134;-72
2022/03/26 12:54:53;;;;;;;32.15;15.15;;;;;;;;;;5087759;28;20076;-70
2022/03/26 12:57:23;;;;;;;35.85;16.25;;;;;;;;;;5091203;28;20082;-68
2022/03/26 12:59:51;;;;;;;30.08;15.48;;;;;;;;;;5089721;28;20120;-68
2022/03/26 13:02:20;;;;;;;34.42;16.25;;;;;;;;;;5086656;28;20083;-72
2022/03/26 13:04:52;;;;;;;37.83;16.38;;;;;;;;;;5091393;28;20044;-68
2022/03/26 13:07:21;;;;;;;35.78;15.05;;;;;;;;;;5087923;28;20093;-68
2022/03/26 13:09:54;;;;;;;31.25;13.80;;;;;;;;;;5086597;28;20063;-66
2022/03/26 13:12:28;;;;;;;33.80;15.75;;;;;;;;;;5090312;28;20071;-67
2022/03/26 13:14:57;;;;;;;36.50;15.95;;;;;;;;;;5090843;28;20109;-66
2022/03/26 13:17:26;;;;;;;32.08;15.57;;;;;;;;;;5089430;28;20064;-67
2022/03/26 13:19:57;;;;;;;34.60;15.73;;;;;;;;;;5090912;28;20139;-66
2022/03/26 13:22:27;;;;;;;34.17;16.00;;;;;;;;;;5084160;28;20391;-66
2022/03/26 13:24:57;;;;;;;30.80;15.15;;;;;;;;;;5086807;28;20579;-66
2022/03/26 13:27:26;;;;;;;37.28;15.48;;;;;;;;;;5086947;28;20089;-66
2022/03/26 13:30:08;;;;;;;30.88;14.90;;;;;;;;;;5087612;28;20076;-66
2022/03/26 13:32:37;;;;;;;33.33;15.20;;;;;;;;;;5078381;28;20123;-68
2022/03/26 13:35:05;;;;;;;32.03;14.30;;;;;;;;;;5088946;28;20367;-66
2022/03/26 13:37:34;;;;;;;29.20;14.82;;;;;;;;;;5083808;28;20060;-67
2022/03/26 13:40:03;;;;;;;33.20;15.35;;;;;;;;;;5065459;28;20067;-66
2022/03/26 13:42:31;;;;;;;30.42;15.35;;;;;;;;;;5070085;28;20059;-67
2022/03/26 13:45:03;;;;;;;29.17;14.70;;;;;;;;;;5072698;28;20479;-66
2022/03/26 13:47:32;;;;;;;32.65;15.23;;;;;;;;;;5074384;28;20055;-67
2022/03/26 13:50:05;;;;;;;31.35;15.65;;;;;;;;;;5066631;28;20554;-66
2022/03/26 13:52:34;;;;;;;31.05;15.10;;;;;;;;;;5073458;28;20075;-68
2022/03/26 13:55:03;;;;;;;35.00;14.90;;;;;;;;;;5072708;28;20063;-68
2022/03/26 13:57:32;;;;;;;28.90;14.13;;;;;;;;;;5056406;28;20135;-69
2022/03/26 14:00:07;;;;;;;29.52;13.85;;;;;;;;;;5059363;28;20112;-67
2022/03/26 14:02:37;;;;;;;29.85;13.63;;;;;;;;;;5067203;28;20037;-68
2022/03/26 14:05:17;;;;;;;32.28;14.07;;;;;;;;;;5069974;28;20147;-68
2022/03/26 14:07:48;;;;;;;30.25;13.93;;;;;;;;;;5069266;28;20047;-68
2022/03/26 14:10:16;;;;;;;29.50;14.38;;;;;;;;;;5061777;28;20063;-68
2022/03/26 14:12:45;;;;;;;33.22;14.98;;;;;;;;;;5065013;28;20064;-68
2022/03/26 14:15:14;;;;;;;30.17;14.15;;;;;;;;;;5068333;28;20037;-67
2022/03/26 14:17:43;;;;;;;32.28;14.45;;;;;;;;;;5068470;28;20102;-68
2022/03/26 14:20:12;;;;;;;33.10;14.32;;;;;;;;;;5068390;28;20068;-67
2022/03/26 14:22:40;;;;;;;26.35;13.80;;;;;;;;;;5069184;28;20517;-68
2022/03/26 14:25:09;;;;;;;25.33;13.50;;;;;;;;;;5055000;28;20044;-69
2022/03/26 14:27:37;;;;;;;31.13;12.98;;;;;;;;;;5069586;28;20083;-70
2022/03/26 14:30:06;;;;;;;30.15;14.15;;;;;;;;;;5065248;28;20558;-67
2022/03/26 14:32:36;;;;;;;27.70;13.45;;;;;;;;;;5060246;28;20135;-68
2022/03/26 14:35:05;;;;;;;26.95;12.60;;;;;;;;;;5068286;28;20487;-67
2022/03/26 14:37:39;;;;;;;28.50;12.63;;;;;;;;;;5073258;28;20505;-68
2022/03/26 14:40:08;;;;;;;27.90;13.18;;;;;;;;;;5086992;28;20097;-67
2022/03/26 14:42:36;;;;;;;29.95;12.45;;;;;;;;;;5086795;28;20476;-69
2022/03/26 14:45:06;;;;;;;36.28;15.63;;;;;;;;;;5090309;28;20132;-67